Time;durP1;ratioP1;P1;durP2;ratioP2;P2;SDS_P1;SDS_P2;PMS_P1;PMS_P2;Temp;Humidity;BMP_temperature;BMP_pressure;BME280_temperature;BME280_humidity;BME280_pressure;Samples;Min_cycle;Max_cycle;Signal;HPM_P1;HPM_P2
2022/05/03 00:02:05;;;;;;;21.40;18.90;;;;;;;9.49;56.76;97762.81;104929;1289;23060;-80
2022/05/03 00:05:01;;;;;;;25.70;23.00;;;;;;;9.45;57.24;97761.22;107833;1289;22566;-81
2022/05/03 00:07:49;;;;;;;21.50;19.50;;;;;;;9.42;57.04;97758.76;108012;1289;22676;-79
2022/05/03 00:10:28;;;;;;;21.00;18.90;;;;;;;9.42;57.19;97757.52;105361;1289;22631;-80
2022/05/03 00:13:08;;;;;;;20.40;18.30;;;;;;;9.41;57.00;97756.03;105052;1288;24313;-80
2022/05/03 00:15:39;;;;;;;20.90;18.90;;;;;;;9.38;57.01;97753.38;105118;1289;24266;-82
2022/05/03 00:18:08;;;;;;;21.90;19.80;;;;;;;9.33;56.99;97750.39;105571;1289;22586;-83
2022/05/03 00:20:37;;;;;;;24.80;21.80;;;;;;;9.27;57.01;97754.27;104657;1289;23964;-82
2022/05/03 00:23:05;;;;;;;27.80;24.80;;;;;;;9.16;57.19;97754.38;104716;1289;25397;-84
2022/05/03 00:25:34;;;;;;;26.60;24.00;;;;;;;9.02;57.34;97753.63;105020;1289;24240;-82
2022/05/03 00:28:03;;;;;;;25.30;22.90;;;;;;;8.94;57.45;97756.11;104782;1289;24419;-82
2022/05/03 00:30:31;;;;;;;27.30;24.70;;;;;;;8.84;57.78;97757.15;104858;1289;25510;-81
2022/05/03 00:33:02;;;;;;;22.70;20.40;;;;;;;8.76;57.90;97749.70;104844;1289;22637;-82
2022/05/03 00:35:31;;;;;;;22.60;18.80;;;;;;;8.71;58.25;97743.87;104870;1289;25377;-83
2022/05/03 00:37:59;;;;;;;20.20;18.30;;;;;;;8.64;58.31;97744.06;104852;1289;22676;-84
2022/05/03 00:40:30;;;;;;;20.90;18.80;;;;;;;8.59;58.83;97744.08;104853;1289;23321;-82
2022/05/03 00:43:19;;;;;;;23.20;20.70;;;;;;;8.57;58.84;97743.73;104925;1289;22564;-82
2022/05/03 00:45:58;;;;;;;20.40;18.20;;;;;;;8.55;58.69;97742.02;104778;1289;25444;-81
2022/05/03 00:48:46;;;;;;;22.40;19.80;;;;;;;8.59;58.82;97741.02;104865;1289;25334;-80
2022/05/03 00:52:05;;;;;;;27.70;25.30;;;;;;;8.62;58.76;97744.46;105300;1289;24343;-83
2022/05/03 00:54:39;;;;;;;20.30;18.30;;;;;;;8.57;58.76;97747.27;104733;1289;22614;-83
2022/05/03 00:57:16;;;;;;;;;;;;;;;8.50;58.84;97749.30;104950;1289;24008;-83
2022/05/03 01:00:05;;;;;;;18.50;16.80;;;;;;;8.41;59.15;97752.95;105029;1289;22564;-83
2022/05/03 01:02:49;;;;;;;20.90;18.50;;;;;;;8.35;59.24;97751.44;104877;1289;22589;-82
2022/05/03 01:05:22;;;;;;;20.70;18.80;;;;;;;8.29;59.41;97755.11;104819;1289;24270;-83
2022/05/03 01:08:04;;;;;;;21.00;19.00;;;;;;;8.24;60.05;97753.30;104653;1289;22875;-83
2022/05/03 01:10:46;;;;;;;21.40;19.30;;;;;;;8.28;59.84;97756.94;104807;1289;22829;-82
2022/05/03 01:13:25;;;;;;;20.90;18.90;;;;;;;8.37;59.70;97757.33;104830;1289;25247;-82
2022/05/03 01:16:16;;;;;;;21.30;18.70;;;;;;;8.38;59.74;97758.66;105002;1289;25376;-83
2022/05/03 01:19:16;;;;;;;25.40;23.00;;;;;;;8.39;60.50;97758.98;105188;1289;24823;-82
2022/05/03 01:22:08;;;;;;;22.00;19.80;;;;;;;8.42;60.24;97753.64;104621;1290;22617;-83
2022/05/03 01:25:08;;;;;;;24.60;22.30;;;;;;;8.40;60.55;97738.08;104957;1289;22670;-83
2022/05/03 01:27:59;;;;;;;38.60;35.00;;;;;;;8.52;61.04;97735.73;105026;1289;22631;-81
2022/05/03 01:30:31;;;;;;;26.80;24.30;;;;;;;8.73;60.98;97738.77;105041;1289;23493;-78
2022/05/03 01:33:06;;;;;;;35.60;32.20;;;;;;;8.86;62.33;97737.36;104586;1289;25396;-80
2022/05/03 01:35:38;;;;;;;40.30;36.50;;;;;;;8.96;61.42;97735.54;104912;1289;22894;-79
2022/05/03 01:38:19;;;;;;;43.80;39.80;;;;;;;9.08;61.81;97740.00;104826;1289;24393;-80
2022/05/03 01:41:03;;;;;;;45.20;41.00;;;;;;;9.21;61.38;97734.46;104910;1288;23488;-80
2022/05/03 01:44:09;;;;;;;39.40;36.00;;;;;;;9.33;61.33;97728.13;104910;1288;25341;-80
2022/05/03 01:46:38;;;;;;;40.50;36.80;;;;;;;9.44;61.33;97726.45;104831;1289;22608;-80
2022/05/03 01:52:09;;;;;;;45.40;41.40;;;;;;;9.61;61.47;97737.88;104843;1289;22708;-79
2022/05/03 01:55:19;;;;;;;43.30;39.50;;;;;;;9.55;61.89;97738.14;104815;1290;25400;-80
2022/05/03 01:57:59;;;;;;;48.10;43.50;;;;;;;9.43;62.52;97736.04;104585;1289;25393;-79
2022/05/03 02:00:27;;;;;;;49.50;45.10;;;;;;;9.39;62.72;97737.33;104885;1289;22568;-79
2022/05/03 02:03:27;;;;;;;43.70;39.40;;;;;;;9.38;62.44;97732.73;104828;1288;22697;-80
2022/05/03 02:06:13;;;;;;;44.70;40.50;;;;;;;9.31;62.49;97733.98;104918;1289;22559;-79
2022/05/03 02:09:06;;;;;;;46.00;42.00;;;;;;;9.27;62.65;97732.05;104875;1289;22709;-79
2022/05/03 02:11:46;;;;;;;45.10;40.80;;;;;;;9.27;62.52;97734.42;104837;1289;22607;-79
2022/05/03 02:14:44;;;;;;;43.80;39.80;;;;;;;9.27;62.88;97734.59;104872;1289;24392;-79
2022/05/03 02:17:40;;;;;;;46.30;42.00;;;;;;;9.25;63.02;97735.41;104837;1289;22902;-79
2022/05/03 02:20:34;;;;;;;46.20;41.40;;;;;;;9.24;63.05;97736.29;104589;1288;22573;-79
2022/05/03 02:23:15;;;;;;;47.30;42.30;;;;;;;9.15;62.38;97739.71;104855;1289;22640;-78
2022/05/03 02:26:12;;;;;;;78.40;70.90;;;;;;;8.95;62.61;97738.30;104577;1288;24289;-78
2022/05/03 02:28:48;;;;;;;41.40;37.70;;;;;;;8.87;62.92;97740.73;104799;1288;22645;-78
2022/05/03 02:31:27;;;;;;;39.50;36.00;;;;;;;8.67;64.54;97746.91;104634;1289;22560;-79
2022/05/03 02:34:21;;;;;;;45.50;41.30;;;;;;;8.46;64.72;97743.60;104667;1288;24280;-80
2022/05/03 02:36:59;;;;;;;48.00;43.30;;;;;;;8.41;65.50;97738.87;104787;1288;22610;-78
2022/05/03 02:39:31;;;;;;;42.20;38.40;;;;;;;8.44;65.22;97735.24;104929;1289;23547;-78
2022/05/03 02:42:01;;;;;;;42.90;38.80;;;;;;;8.48;64.85;97741.11;104554;1288;24120;-79
2022/05/03 02:44:33;;;;;;;40.70;37.20;;;;;;;8.49;64.57;97738.73;104934;1288;24105;-80
2022/05/03 02:47:08;;;;;;;42.30;38.40;;;;;;;8.50;64.77;97741.40;104877;1288;24450;-79
2022/05/03 02:49:49;;;;;;;43.40;39.50;;;;;;;8.49;65.11;97741.95;104823;1289;25247;-78
2022/05/03 02:52:57;;;;;;;44.90;40.80;;;;;;;8.47;64.92;97745.73;104554;1289;22581;-79
2022/05/03 02:55:40;;;;;;;51.40;47.10;;;;;;;8.40;65.19;97744.90;104900;1289;24286;-79
2022/05/03 02:58:56;;;;;;;52.90;48.20;;;;;;;8.39;65.59;97743.08;105012;1289;22730;-79
2022/05/03 03:01:48;;;;;;;53.80;48.80;;;;;;;8.48;65.75;97738.86;104583;1289;25678;-80
2022/05/03 03:05:08;;;;;;;50.80;45.90;;;;;;;8.60;66.00;97738.48;104796;1289;22718;-79
2022/05/03 03:07:46;;;;;;;51.50;46.90;;;;;;;8.74;65.70;97738.70;104049;1293;22593;-80
2022/05/03 03:10:20;;;;;;;45.30;41.40;;;;;;;8.84;65.98;97734.52;104117;1293;22610;-78
2022/05/03 03:13:11;;;;;;;;;;;;;;;8.89;65.54;97734.91;104070;1294;25405;-79
2022/05/03 03:15:40;;;;;;;48.30;44.00;;;;;;;8.88;65.91;97734.59;103794;1293;22800;-80
2022/05/03 03:18:20;;;;;;;52.70;48.20;;;;;;;8.84;65.87;97737.97;104394;1293;24446;-77
2022/05/03 03:20:56;;;;;;;48.00;43.60;;;;;;;8.80;65.97;97734.21;104049;1294;23513;-80
2022/05/03 03:23:29;;;;;;;51.70;47.20;;;;;;;8.79;65.81;97738.86;104008;1294;26662;-80
2022/05/03 03:25:58;;;;;;;49.60;45.10;;;;;;;8.76;65.90;97739.91;104356;1294;25448;-79
2022/05/03 03:28:29;;;;;;;52.30;47.70;;;;;;;8.68;66.31;97740.73;104028;1294;24372;-78
2022/05/03 03:31:00;;;;;;;53.90;49.20;;;;;;;8.60;66.35;97742.72;103888;1294;22720;-79
2022/05/03 03:33:32;;;;;;;58.30;53.40;;;;;;;8.57;66.68;97748.66;104002;1294;24191;-79
2022/05/03 03:36:03;;;;;;;57.10;52.20;;;;;;;8.60;66.95;97749.48;104331;1293;24262;-79
2022/05/03 03:38:43;;;;;;;55.10;50.00;;;;;;;8.67;67.32;97751.77;104537;1289;22737;-79
2022/05/03 03:41:11;;;;;;;57.30;52.40;;;;;;;8.73;67.40;97749.90;104983;1289;22982;-79
2022/05/03 03:43:45;;;;;;;54.30;49.80;;;;;;;8.83;67.46;97744.70;104988;1289;25536;-78
2022/05/03 03:46:13;;;;;;;55.80;50.50;;;;;;;8.93;67.52;97746.29;104732;1289;22632;-77
2022/05/03 03:48:41;;;;;;;58.30;53.50;;;;;;;9.00;67.28;97748.34;104970;1289;22613;-78
2022/05/03 03:51:10;;;;;;;57.50;52.60;;;;;;;9.04;67.61;97741.82;105029;1289;24258;-79
2022/05/03 03:53:39;;;;;;;52.80;48.40;;;;;;;9.08;67.46;97746.86;105073;1288;23419;-79
2022/05/03 03:56:07;;;;;;;53.50;48.30;;;;;;;9.06;67.01;97749.73;104804;1289;22723;-78
2022/05/03 03:58:36;;;;;;;58.30;53.10;;;;;;;9.04;67.15;97750.63;104631;1289;23241;-80
2022/05/03 04:01:04;;;;;;;57.30;52.30;;;;;;;9.02;67.31;97753.73;104574;1289;24109;-79
2022/05/03 04:03:34;;;;;;;57.80;52.90;;;;;;;8.99;67.40;97752.84;104574;1289;22560;-80
2022/05/03 04:06:03;;;;;;;56.10;51.20;;;;;;;9.02;68.07;97756.90;104876;1289;24244;-80
2022/05/03 04:08:31;;;;;;;61.80;56.30;;;;;;;9.02;67.70;97758.13;104713;1289;22719;-78
2022/05/03 04:11:25;;;;;;;65.90;60.20;;;;;;;9.05;67.99;97755.66;104653;1288;22599;-82
2022/05/03 04:13:54;;;;;;;56.60;51.60;;;;;;;9.18;68.14;97756.06;104978;1289;22631;-80
2022/05/03 04:16:21;;;;;;;60.80;55.50;;;;;;;9.29;68.20;97751.04;104795;1289;22988;-81
2022/05/03 04:18:49;;;;;;;63.70;58.20;;;;;;;9.45;68.37;97748.27;104805;1289;22570;-79
2022/05/03 04:21:19;;;;;;;60.90;55.50;;;;;;;9.60;68.28;97752.33;104664;1289;22565;-78
2022/05/03 04:23:47;;;;;;;61.40;56.00;;;;;;;9.73;68.29;97758.55;104822;1289;25730;-79
2022/05/03 04:26:15;;;;;;;59.10;54.20;;;;;;;9.84;68.16;97759.80;104641;1289;26726;-80
2022/05/03 04:28:43;;;;;;;60.50;55.10;;;;;;;9.94;68.15;97756.98;104784;1289;23084;-80
2022/05/03 04:31:11;;;;;;;58.20;52.90;;;;;;;10.04;68.27;97754.48;104889;1289;22592;-79
2022/05/03 04:33:39;;;;;;;57.50;52.50;;;;;;;10.17;68.09;97755.36;104846;1289;25487;-80
2022/05/03 04:36:07;;;;;;;58.00;52.80;;;;;;;10.27;67.88;97755.14;104814;1288;24394;-79
2022/05/03 04:38:35;;;;;;;55.70;50.80;;;;;;;10.36;67.99;97757.49;104854;1289;22650;-80
2022/05/03 04:41:03;;;;;;;58.00;52.40;;;;;;;10.45;68.03;97762.70;104847;1289;25348;-79
2022/05/03 04:43:31;;;;;;;56.70;51.90;;;;;;;10.53;67.91;97766.58;104890;1289;25564;-79
2022/05/03 04:46:00;;;;;;;58.60;53.40;;;;;;;10.57;67.77;97765.67;104622;1288;22721;-78
2022/05/03 04:48:28;;;;;;;59.60;54.50;;;;;;;10.61;67.79;97755.89;104653;1289;22716;-79
2022/05/03 04:50:55;;;;;;;60.40;55.00;;;;;;;10.65;67.59;97751.24;104519;1289;24343;-80
2022/05/03 04:53:23;;;;;;;52.90;47.90;;;;;;;10.69;67.58;97757.33;104555;1289;22545;-79
2022/05/03 04:55:51;;;;;;;55.10;50.20;;;;;;;10.73;67.35;97749.23;104630;1288;22684;-79
2022/05/03 04:58:19;;;;;;;54.00;49.40;;;;;;;10.76;67.22;97752.71;104630;1289;24312;-80
2022/05/03 05:00:47;;;;;;;54.70;49.90;;;;;;;10.78;67.27;97746.25;104662;1289;25384;-78
2022/05/03 05:03:15;;;;;;;56.40;51.60;;;;;;;10.81;67.55;97751.14;104651;1289;25820;-78
2022/05/03 05:05:43;;;;;;;67.20;61.60;;;;;;;10.86;67.35;97742.30;104662;1289;25307;-79
2022/05/03 05:08:11;;;;;;;55.90;51.10;;;;;;;10.92;67.47;97746.21;104630;1289;22604;-80
2022/05/03 05:10:39;;;;;;;54.50;49.50;;;;;;;10.97;67.28;97747.69;104761;1289;22620;-78
2022/05/03 05:13:07;;;;;;;54.40;49.40;;;;;;;11.01;67.25;97748.86;104672;1289;25276;-79
2022/05/03 05:15:37;;;;;;;50.80;46.20;;;;;;;11.10;67.30;97757.98;104883;1288;25348;-80
2022/05/03 05:18:05;;;;;;;51.40;47.00;;;;;;;11.20;67.22;97765.01;104868;1289;22559;-79
2022/05/03 05:20:34;;;;;;;53.50;48.80;;;;;;;11.26;67.19;97768.66;104864;1289;25434;-78
2022/05/03 05:23:02;;;;;;;52.20;47.50;;;;;;;11.34;67.26;97763.77;105663;1288;22592;-78
2022/05/03 05:25:51;;;;;;;54.70;49.80;;;;;;;11.44;67.04;97758.41;107312;1288;22670;-79
2022/05/03 05:32:56;;;;;;;49.60;44.90;;;;;;;11.63;66.45;97771.17;105101;1289;22757;-80
2022/05/03 05:35:24;;;;;;;53.10;48.40;;;;;;;11.67;66.69;97772.36;104831;1288;25316;-79
2022/05/03 05:37:52;;;;;;;56.00;50.80;;;;;;;11.72;66.63;97777.25;105058;1289;25311;-80
2022/05/03 05:40:19;;;;;;;50.80;46.40;;;;;;;11.75;66.52;97778.58;105074;1289;24115;-79
2022/05/03 05:42:49;;;;;;;52.00;47.20;;;;;;;11.84;66.63;97775.69;105038;1289;22872;-78
2022/05/03 05:45:17;;;;;;;51.90;47.10;;;;;;;11.93;66.47;97776.64;104795;1289;23072;-77
2022/05/03 05:47:45;;;;;;;51.00;46.40;;;;;;;12.00;66.59;97776.52;104727;1289;22728;-80
2022/05/03 05:50:13;;;;;;;51.60;46.80;;;;;;;12.06;66.40;97777.63;104686;1289;23983;-79
2022/05/03 05:55:27;;;;;;;50.50;46.10;;;;;;;12.15;66.02;97769.91;104832;1289;22906;-79
2022/05/03 05:57:55;;;;;;;48.80;44.60;;;;;;;12.23;66.10;97768.89;104585;1289;22566;-81
2022/05/03 06:00:23;;;;;;;48.80;44.60;;;;;;;12.30;66.05;97764.91;104589;1288;22673;-78
2022/05/03 06:02:51;;;;;;;51.70;47.10;;;;;;;12.39;65.93;97760.65;104608;1289;26621;-79
2022/05/03 06:05:19;;;;;;;51.40;46.30;;;;;;;12.48;65.75;97761.53;104618;1289;22671;-80
2022/05/03 06:07:47;;;;;;;50.00;45.60;;;;;;;12.55;65.53;97760.90;104929;1289;24309;-80
2022/05/03 06:10:15;;;;;;;50.40;45.90;;;;;;;12.61;65.58;97756.08;104839;1288;22642;-79
2022/05/03 06:12:43;;;;;;;49.20;44.50;;;;;;;12.65;65.48;97755.68;104871;1289;22566;-81
2022/05/03 06:15:12;;;;;;;50.30;45.60;;;;;;;12.68;65.43;97754.66;104616;1289;24447;-79
2022/05/03 06:17:41;;;;;;;50.60;46.30;;;;;;;12.74;65.10;97748.23;104627;1288;22603;-82
2022/05/03 06:20:10;;;;;;;48.10;44.00;;;;;;;12.83;65.34;97747.52;104924;1289;23982;-80
2022/05/03 06:22:41;;;;;;;48.30;44.00;;;;;;;12.97;65.26;97749.00;104584;1289;22885;-79
2022/05/03 06:25:09;;;;;;;46.30;42.20;;;;;;;13.13;65.03;97747.89;104643;1289;25483;-80
2022/05/03 06:27:40;;;;;;;46.50;42.40;;;;;;;13.30;64.97;97750.10;104592;1288;25341;-80
2022/05/03 06:30:09;;;;;;;49.20;45.00;;;;;;;13.47;64.70;97759.04;104521;1289;22659;-79
2022/05/03 06:32:37;;;;;;;48.40;44.10;;;;;;;13.58;64.49;97761.09;104618;1289;24376;-79
2022/05/03 06:35:05;;;;;;;47.00;42.90;;;;;;;13.74;64.40;97762.90;104608;1288;22786;-77
2022/05/03 06:37:37;;;;;;;45.50;41.50;;;;;;;13.88;64.13;97760.25;104608;1289;22759;-81
2022/05/03 06:40:07;;;;;;;42.30;38.60;;;;;;;14.06;64.18;97759.80;104896;1289;22568;-80
2022/05/03 06:42:37;;;;;;;38.70;34.70;;;;;;;14.24;63.42;97761.23;104985;1288;24240;-79
2022/05/03 06:45:06;;;;;;;38.10;34.60;;;;;;;14.34;62.73;97761.58;104889;1289;25356;-80
2022/05/03 06:47:34;;;;;;;34.50;31.20;;;;;;;14.45;62.63;97763.81;104953;1288;23794;-79
2022/05/03 06:50:03;;;;;;;35.20;32.00;;;;;;;14.62;62.68;97763.39;104893;1288;22566;-80
2022/05/03 06:52:31;;;;;;;36.40;33.00;;;;;;;14.80;62.72;97764.62;104926;1289;24319;-79
2022/05/03 06:54:58;;;;;;;37.70;34.30;;;;;;;14.97;62.51;97767.05;104859;1289;25386;-80
2022/05/03 06:57:26;;;;;;;31.50;28.60;;;;;;;15.14;60.71;97769.23;104807;1289;24383;-79
2022/05/03 06:59:54;;;;;;;30.50;27.60;;;;;;;15.25;59.01;97770.73;104530;1289;22789;-83
2022/05/03 07:02:22;;;;;;;29.20;26.40;;;;;;;15.40;60.74;97769.30;104971;1289;25274;-83
2022/05/03 07:04:50;;;;;;;30.20;27.10;;;;;;;15.50;60.24;97769.84;104937;1289;22564;-83
2022/05/03 07:07:18;;;;;;;27.30;24.70;;;;;;;15.62;59.55;97772.09;105111;1288;23802;-83
2022/05/03 07:09:46;;;;;;;28.10;25.60;;;;;;;15.76;59.85;97773.81;105065;1288;22569;-81
2022/05/03 07:12:14;;;;;;;27.10;24.40;;;;;;;15.86;58.89;97774.23;104971;1289;22556;-79
2022/05/03 07:14:42;;;;;;;22.10;20.00;;;;;;;15.93;58.78;97774.59;104635;1289;22909;-79
2022/05/03 07:22:45;;;;;;;23.10;20.50;;;;;;;15.97;57.33;97778.63;104555;1289;22670;-81
2022/05/03 07:22:47;;;;;;;22.10;19.90;;;;;;;16.00;56.24;97783.14;104895;1289;24549;-78
2022/05/03 07:25:16;;;;;;;23.80;21.20;;;;;;;16.01;55.05;97780.70;104934;1288;22721;-80
2022/05/03 07:27:48;;;;;;;24.20;21.70;;;;;;;16.10;56.31;97777.72;104920;1289;22572;-80
2022/05/03 07:30:16;;;;;;;22.00;19.70;;;;;;;16.21;56.28;97780.20;104721;1289;24105;-81
2022/05/03 07:32:45;;;;;;;21.90;19.90;;;;;;;16.28;55.55;97778.08;104726;1289;24268;-80
2022/05/03 07:35:13;;;;;;;21.20;19.30;;;;;;;16.30;54.72;97778.08;104821;1289;24312;-80
2022/05/03 07:37:41;;;;;;;20.30;18.30;;;;;;;16.29;54.24;97776.10;104538;1290;22899;-80
2022/05/03 07:40:10;;;;;;;20.70;18.70;;;;;;;16.32;54.29;97777.14;104615;1289;22875;-79
2022/05/03 07:42:39;;;;;;;22.30;20.10;;;;;;;16.35;53.19;97784.77;104610;1289;22712;-79
2022/05/03 07:45:08;;;;;;;23.50;21.10;;;;;;;16.35;52.98;97781.73;104606;1288;23142;-80
2022/05/03 07:47:36;;;;;;;23.40;21.20;;;;;;;16.36;53.39;97782.39;104815;1289;24393;-79
2022/05/03 07:50:05;;;;;;;22.90;20.60;;;;;;;16.41;52.86;97786.71;104552;1289;22560;-80
2022/05/03 07:52:37;;;;;;;20.20;18.20;;;;;;;16.44;51.55;97784.51;104611;1289;22610;-80
2022/05/03 07:55:08;;;;;;;24.90;22.60;;;;;;;16.54;52.73;97786.15;104646;1289;24448;-79
2022/05/03 07:57:36;;;;;;;21.50;19.30;;;;;;;16.58;52.23;97787.05;104653;1289;25015;-81
2022/05/03 08:00:06;;;;;;;26.40;22.00;;;;;;;16.62;51.85;97788.02;104862;1289;25368;-79
2022/05/03 08:02:34;;;;;;;22.70;20.40;;;;;;;16.68;52.00;97788.77;104638;1289;23233;-81
2022/05/03 08:05:02;;;;;;;21.70;19.50;;;;;;;16.73;51.45;97790.09;104570;1289;22581;-81
2022/05/03 08:07:30;;;;;;;24.10;21.80;;;;;;;16.77;51.41;97793.27;105124;1288;25342;-81
2022/05/03 08:09:58;;;;;;;24.40;22.10;;;;;;;16.78;50.71;97792.74;104933;1289;26149;-81
2022/05/03 08:12:26;;;;;;;24.30;22.00;;;;;;;16.85;51.60;97791.94;104733;1289;22683;-79
2022/05/03 08:14:55;;;;;;;24.80;22.20;;;;;;;16.90;51.19;97794.35;104826;1289;25426;-79
2022/05/03 08:17:27;;;;;;;23.20;20.60;;;;;;;16.89;50.97;97791.92;104798;1289;22589;-82
2022/05/03 08:19:55;;;;;;;22.20;20.10;;;;;;;16.89;50.03;97792.85;105062;1289;22583;-80
2022/05/03 08:22:24;;;;;;;27.60;25.20;;;;;;;16.91;49.67;97798.73;104807;1289;24239;-80
2022/05/03 08:24:53;;;;;;;30.90;27.90;;;;;;;16.98;50.26;97797.93;104763;1289;23948;-81
2022/05/03 08:27:21;;;;;;;32.50;29.10;;;;;;;17.05;50.53;97798.06;104855;1289;22658;-81
2022/05/03 08:29:48;;;;;;;31.70;28.70;;;;;;;17.11;50.98;97798.09;104904;1289;24289;-81
2022/05/03 08:32:17;;;;;;;34.50;29.30;;;;;;;17.21;51.09;97797.16;104919;1289;22686;-81
2022/05/03 08:34:45;;;;;;;32.70;29.50;;;;;;;17.36;51.08;97797.34;105000;1288;24292;-80
2022/05/03 08:42:47;;;;;;;29.50;26.70;;;;;;;17.68;51.06;97797.77;104632;1288;22555;-80
2022/05/03 08:45:15;;;;;;;30.00;27.10;;;;;;;17.70;50.59;97799.08;104598;1289;22625;-80
2022/05/03 08:47:43;;;;;;;28.20;25.50;;;;;;;17.66;50.58;97806.99;104699;1288;23555;-79
2022/05/03 08:50:12;;;;;;;29.70;26.80;;;;;;;17.62;50.41;97805.63;104609;1289;22765;-80
2022/05/03 08:52:49;;;;;;;30.40;27.30;;;;;;;17.57;50.36;97805.80;104806;1289;24305;-80
2022/05/03 08:55:17;;;;;;;30.10;27.10;;;;;;;17.61;50.19;97805.20;104842;1289;22775;-79
2022/05/03 08:57:45;;;;;;;29.30;26.50;;;;;;;17.68;49.45;97808.23;104921;1289;24298;-80
2022/05/03 09:00:15;;;;;;;30.50;27.30;;;;;;;17.66;48.55;97808.62;104850;1289;22791;-81
2022/05/03 09:02:48;;;;;;;29.90;27.10;;;;;;;17.60;48.45;97803.29;104922;1289;23646;-81
2022/05/03 09:05:16;;;;;;;29.60;26.70;;;;;;;17.64;48.58;97805.91;105042;1289;22707;-80
2022/05/03 09:08:04;;;;;;;31.40;28.60;;;;;;;17.81;48.68;97804.04;104899;1289;22791;-81
2022/05/03 09:10:34;;;;;;;31.40;28.60;;;;;;;17.89;48.76;97799.44;104972;1289;22543;-81
2022/05/03 09:13:24;;;;;;;29.00;26.20;;;;;;;17.98;48.45;97798.11;105056;1289;24439;-80
2022/05/03 09:15:56;;;;;;;28.20;25.30;;;;;;;17.94;48.00;97795.61;105046;1288;25330;-80
2022/05/03 09:18:29;;;;;;;25.10;21.80;;;;;;;17.97;48.09;97797.47;105095;1289;25373;-80
2022/05/03 09:24:00;;;;;;;28.30;25.30;;;;;;;18.03;47.48;97800.52;105048;1289;25427;-80
2022/05/03 09:26:30;;;;;;;25.00;22.50;;;;;;;18.00;46.38;97798.10;104916;1289;24456;-80
2022/05/03 09:28:58;;;;;;;26.30;23.70;;;;;;;18.04;47.07;97795.10;104899;1289;25435;-81
2022/05/03 09:31:30;;;;;;;23.80;21.30;;;;;;;18.18;47.49;97792.27;104927;1288;25386;-81
2022/05/03 09:34:01;;;;;;;21.90;20.00;;;;;;;18.35;46.44;97792.98;105008;1289;25382;-90
2022/05/03 09:36:42;;;;;;;20.40;18.20;;;;;;;18.45;46.38;97786.91;105136;1289;25372;-91
2022/05/03 09:39:32;;;;;;;22.30;19.90;;;;;;;18.54;45.83;97786.27;105502;1288;22565;-89
2022/05/03 09:42:14;;;;;;;23.60;21.20;;;;;;;18.50;45.32;97794.20;105038;1289;24709;-89
2022/05/03 09:45:00;;;;;;;24.30;21.00;;;;;;;18.39;44.76;97795.48;105019;1289;25549;-88
2022/05/03 09:47:31;;;;;;;25.60;22.00;;;;;;;18.19;44.20;97795.72;104897;1289;22583;-88
2022/05/03 09:50:00;;;;;;;24.00;21.50;;;;;;;18.06;44.69;97787.43;105089;1288;23949;-88
2022/05/03 09:52:39;;;;;;;23.90;21.40;;;;;;;18.09;45.27;97784.54;105144;1289;24238;-91
2022/05/03 09:55:09;;;;;;;20.30;18.50;;;;;;;18.16;44.41;97790.56;105512;1289;24103;-91
2022/05/03 09:57:40;;;;;;;22.80;18.70;;;;;;;18.19;44.04;97789.08;105047;1289;23250;-88
2022/05/03 10:00:10;;;;;;;23.20;20.40;;;;;;;18.19;43.34;97787.98;105080;1289;23453;-87
2022/05/03 10:02:43;;;;;;;23.60;21.30;;;;;;;18.17;43.02;97786.70;105184;1289;22558;-89
2022/05/03 10:05:16;;;;;;;24.20;21.70;;;;;;;18.16;43.72;97781.98;105042;1289;23960;-87
2022/05/03 10:07:50;;;;;;;23.90;21.50;;;;;;;18.35;44.05;97778.72;105207;1289;24078;-85
2022/05/03 10:10:19;;;;;;;25.10;22.70;;;;;;;18.50;43.62;97778.46;104773;1289;22587;-86
2022/05/03 10:12:50;;;;;;;23.70;21.50;;;;;;;18.68;44.05;97774.98;105673;1289;22994;-86
2022/05/03 10:21:15;;;;;;;23.20;20.80;;;;;;;19.42;43.73;97771.52;105044;1289;22750;-86
2022/05/03 10:24:01;;;;;;;25.10;22.60;;;;;;;19.68;42.87;97770.17;105297;1288;22538;-86
2022/05/03 10:26:58;;;;;;;24.00;21.50;;;;;;;19.83;42.83;97762.89;105396;1289;24274;-89
2022/05/03 10:29:26;;;;;;;18.00;16.10;;;;;;;19.87;41.81;97762.87;105431;1289;22554;-88
2022/05/03 10:32:05;;;;;;;18.90;17.10;;;;;;;19.72;40.56;97766.65;105865;1289;22547;-90
2022/05/03 10:34:56;;;;;;;18.80;16.90;;;;;;;19.50;40.58;97765.44;106734;1289;22578;-81
2022/05/03 10:37:28;;;;;;;22.70;20.50;;;;;;;19.35;40.71;97767.39;108072;1288;22628;-85
2022/05/03 10:39:58;;;;;;;23.90;20.60;;;;;;;19.19;41.67;97766.60;107452;1288;24411;-87
2022/05/03 10:42:31;;;;;;;23.50;21.00;;;;;;;19.09;40.96;97769.98;108153;1288;22575;-85
2022/05/03 10:45:10;;;;;;;24.10;20.90;;;;;;;18.97;40.48;97769.26;108072;1287;22609;-87
2022/05/03 10:47:53;;;;;;;21.60;19.30;;;;;;;18.82;40.69;97766.66;108263;1288;22763;-88
2022/05/03 10:50:29;;;;;;;26.50;20.40;;;;;;;18.78;40.35;97763.30;108038;1288;22583;-89
2022/05/03 10:53:07;;;;;;;20.30;18.30;;;;;;;18.85;40.23;97762.52;107026;1288;23467;-91
2022/05/03 10:55:40;;;;;;;20.50;18.40;;;;;;;19.06;40.07;97759.15;105432;1288;22680;-90
2022/05/03 10:58:26;;;;;;;21.70;18.00;;;;;;;19.28;39.65;97752.81;105311;1289;25224;-91
2022/05/03 11:01:11;;;;;;;19.80;17.90;;;;;;;19.50;39.30;97752.08;105321;1289;22997;-88
2022/05/03 11:03:41;;;;;;;18.60;16.80;;;;;;;19.74;39.62;97746.39;105741;1288;22739;-91
2022/05/03 11:06:18;;;;;;;20.20;16.90;;;;;;;19.97;39.54;97738.11;105376;1288;22654;-88
2022/05/03 11:11:39;;;;;;;22.20;17.50;;;;;;;20.61;38.57;97733.85;105438;1289;22692;-86
2022/05/03 11:14:21;;;;;;;17.40;15.60;;;;;;;20.81;38.79;97732.66;105253;1289;22566;-86
2022/05/03 11:16:53;;;;;;;16.20;14.40;;;;;;;20.99;38.70;97732.11;105253;1288;22614;-80
2022/05/03 11:19:23;;;;;;;16.20;12.40;;;;;;;21.10;37.07;97736.33;105150;1289;24391;-82
2022/05/03 11:21:51;;;;;;;14.20;10.40;;;;;;;21.10;36.40;97731.24;105179;1289;22571;-85
2022/05/03 11:24:30;;;;;;;11.20;9.60;;;;;;;21.00;35.73;97737.98;105290;1289;22701;-87
2022/05/03 11:27:01;;;;;;;13.60;10.60;;;;;;;20.85;37.09;97732.71;105273;1289;22580;-90
2022/05/03 11:29:32;;;;;;;12.00;9.80;;;;;;;20.80;37.09;97728.66;105217;1289;22721;-87
2022/05/03 11:32:00;;;;;;;12.10;9.80;;;;;;;20.72;36.25;97727.98;105255;1289;22566;-86
2022/05/03 11:34:29;;;;;;;13.30;10.00;;;;;;;20.48;35.89;97731.21;105223;1289;24637;-89
2022/05/03 11:36:57;;;;;;;13.50;10.80;;;;;;;20.05;35.95;97728.80;105372;1288;22808;-91
2022/05/03 11:39:25;;;;;;;12.60;10.30;;;;;;;19.78;36.70;97726.69;105644;1289;22916;-90
2022/05/03 11:41:54;;;;;;;12.20;10.50;;;;;;;19.75;37.39;97724.77;105340;1289;24343;-89
2022/05/03 11:44:22;;;;;;;14.30;10.50;;;;;;;19.93;37.26;97726.02;105207;1289;22584;-89
2022/05/03 11:46:50;;;;;;;12.30;10.50;;;;;;;20.15;37.29;97713.98;105388;1289;22713;-88
2022/05/03 11:49:18;;;;;;;11.80;10.60;;;;;;;20.44;36.57;97718.02;105318;1289;22763;-93
2022/05/03 11:57:25;;;;;;;12.20;10.60;;;;;;;20.79;35.48;97716.90;105320;1289;25321;-87
2022/05/03 11:59:56;;;;;;;12.90;11.60;;;;;;;20.80;34.75;97716.92;105361;1289;26171;-87
2022/05/03 12:02:30;;;;;;;11.70;10.00;;;;;;;20.68;35.65;97709.79;105305;1289;22616;-83
2022/05/03 12:05:19;;;;;;;12.30;9.00;;;;;;;20.83;35.54;97708.82;105190;1289;22710;-81
2022/05/03 12:07:52;;;;;;;11.90;9.20;;;;;;;21.06;34.74;97708.65;105262;1289;22610;-81
2022/05/03 12:10:23;;;;;;;10.00;8.70;;;;;;;21.00;34.32;97708.50;105182;1289;24123;-81
2022/05/03 12:13:10;;;;;;;11.80;8.80;;;;;;;20.74;34.21;97712.60;105026;1289;22571;-82
2022/05/03 12:15:40;;;;;;;9.90;8.80;;;;;;;20.38;34.87;97708.23;105138;1289;22698;-83
2022/05/03 12:18:13;;;;;;;12.60;9.50;;;;;;;20.19;34.76;97711.06;105189;1289;23376;-82
2022/05/03 12:20:47;;;;;;;12.00;9.00;;;;;;;20.11;34.98;97716.25;104957;1289;25430;-83